Impacts METAR Board INFO
IDs:

KLAS - Las Vegas/McCarran I, NV, US

Updated at: 0128 UTC 20 Feb 2018
Potential Impact None Slight Moderate High
Time19/13Z 19/14Z 19/15Z 19/16Z 19/17Z 19/18Z 19/19Z 19/20Z 19/21Z 19/22Z 19/23Z 20/00Z 20/01Z
VIS10 10 10 10 10 10 10 10 10 10 10 10 10
CIG-- -- -- 100 100 100 100 100 110 110 110 110 --
CoverFEWFEWSCTBKNBKNBKNBKNBKNBKNBKNBKNBKNSCT
FltCatVFRVFRVFRVFRVFRVFRVFRVFRVFRVFRVFRVFRVFR
WXVCBLDU------------------------
WDir240230230320300330340340350340320310300
WSpd15 19 10 15 21 13 11 13 15 15 16 12 12
WGst24 27 -- 23 26 -- 22 21 24 25 25 -- --
Raw hourly METARs
KLAS 191256Z 24015G24KT 10SM VCBLDU FEW250 08/M11 A2959 RMK AO2 PK WND 22033/1201 SLP009 T00831111
KLAS 191356Z 23019G27KT 10SM FEW250 07/M12 A2960 RMK AO2 PK WND 24031/1302 SLP016 OCNL VCBLDU T00721117
KLAS 191456Z 23010KT 10SM FEW080 SCT100 07/M12 A2963 RMK AO2 SLP026 T00671122 51023
KLAS 191556Z 32015G23KT 10SM SCT080 BKN100 07/M08 A2967 RMK AO2 SLP039 T00721078
KLAS 191656Z 30021G26KT 10SM SCT080 BKN100 09/M12 A2968 RMK AO2 PK WND 30026/1656 SLP042 VIRGA E-S-W T00891122
KLAS 191756Z 33013KT 10SM SCT080 BKN100 09/M14 A2969 RMK AO2 PK WND 31026/1700 SLP048 VIRGA E-S-SW T00891144 10094 20067 51021
KLAS 191856Z 34011G22KT 10SM SCT080 BKN100 09/M19 A2970 RMK AO2 SLP049 VIRGA E-S AND NW T00891189
KLAS 191956Z 34013G21KT 10SM SCT070 BKN100 10/M18 A2968 RMK AO2 SLP045 VIRGA DSNT NE-SE T01001183
KLAS 192056Z 35015G24KT 10SM SCT070 BKN110 09/M19 A2967 RMK AO2 SLP043 VIRGA N-E-S T00941194 58006
KLAS 192156Z 34015G25KT 10SM SCT070 BKN110 09/M20 A2969 RMK AO2 PK WND 31027/2114 SLP048 VIRGA ALQDS T00941200
KLAS 192256Z 32016G25KT 10SM SCT070 BKN110 10/M18 A2970 RMK AO2 SLP052 VIRGA ALQDS T01001183
KLAS 192356Z 31012KT 10SM SCT070 BKN110 10/M18 A2972 RMK AO2 SLP060 VIRGA NE-SE-SW T01001183 10111 20083 53014
KLAS 200056Z 30012KT 10SM FEW070 SCT110 09/M18 A2975 RMK AO2 SLP070 VIRGA NE-SE T00891178